createdAt,value
2018-09-03T00:01:11.486Z,1.63
2018-09-03T00:03:40.643Z,2.53
2018-09-03T00:06:09.730Z,2.27
2018-09-03T00:08:38.846Z,2.10
2018-09-03T00:11:08.242Z,2.40
2018-09-03T00:13:37.429Z,2.00
2018-09-03T00:16:06.549Z,2.00
2018-09-03T00:18:35.813Z,1.40
2018-09-03T00:21:04.886Z,1.67
2018-09-03T00:23:34.068Z,1.77
2018-09-03T00:26:03.239Z,1.80
2018-09-03T00:28:32.308Z,1.93
2018-09-03T00:31:06.840Z,1.90
2018-09-03T00:33:41.482Z,2.17
2018-09-03T00:36:15.814Z,2.10
2018-09-03T00:38:50.342Z,2.00
2018-09-03T00:41:24.866Z,2.37
2018-09-03T00:44:57.154Z,1.70
2018-09-03T00:47:26.290Z,1.50
2018-09-03T00:49:55.664Z,1.83
2018-09-03T00:52:25.035Z,2.07
2018-09-03T00:54:54.147Z,2.10
2018-09-03T00:57:23.351Z,2.07
2018-09-03T00:59:52.503Z,2.27
2018-09-03T01:02:21.791Z,2.10
2018-09-03T01:04:50.914Z,2.20
2018-09-03T01:07:20.055Z,2.10
2018-09-03T01:09:49.174Z,2.27
2018-09-03T01:12:18.259Z,2.53
2018-09-03T01:14:47.311Z,2.20
2018-09-03T01:17:16.396Z,2.37
2018-09-03T01:19:45.531Z,2.30
2018-09-03T01:22:14.741Z,2.53
2018-09-03T01:24:43.882Z,2.33
2018-09-03T01:27:12.974Z,2.30
2018-09-03T01:29:42.196Z,1.90
2018-09-03T01:32:11.444Z,2.20
2018-09-03T01:34:40.572Z,2.40
2018-09-03T01:37:09.571Z,2.30
2018-09-03T01:39:38.669Z,2.30
2018-09-03T01:42:07.730Z,2.47
2018-09-03T01:44:36.908Z,2.60
2018-09-03T01:47:05.999Z,2.70
2018-09-03T01:49:35.130Z,2.30
2018-09-03T01:52:04.216Z,1.90
2018-09-03T01:54:33.421Z,2.33
2018-09-03T01:57:02.486Z,2.10
2018-09-03T01:59:31.579Z,2.00
2018-09-03T02:02:00.733Z,2.17
2018-09-03T02:04:29.894Z,2.10
2018-09-03T02:06:59.014Z,2.10
2018-09-03T02:09:28.107Z,2.87
2018-09-03T02:11:57.266Z,2.17
2018-09-03T02:14:26.394Z,1.90
2018-09-03T02:16:55.511Z,2.57
2018-09-03T02:19:24.583Z,2.27
2018-09-03T02:21:53.678Z,2.37
2018-09-03T02:24:22.877Z,2.63
2018-09-03T02:26:52.204Z,2.33
2018-09-03T02:29:21.507Z,2.50
2018-09-03T02:31:50.670Z,2.30
2018-09-03T02:34:19.867Z,2.40
2018-09-03T02:36:49.038Z,2.03
2018-09-03T02:39:18.410Z,2.40
2018-09-03T02:41:47.497Z,2.40
2018-09-03T02:44:16.594Z,2.00
2018-09-03T02:46:45.723Z,2.80
2018-09-03T02:49:15.082Z,2.70
2018-09-03T02:51:44.879Z,2.70
2018-09-03T02:54:14.373Z,2.43
2018-09-03T02:56:43.822Z,2.87
2018-09-03T02:59:12.908Z,2.63
2018-09-03T03:01:42.092Z,2.70
2018-09-03T03:04:12.302Z,3.83
2018-09-03T03:06:42.032Z,3.17
2018-09-03T03:09:13.151Z,5.07
2018-09-03T03:11:42.872Z,5.97
2018-09-03T03:14:12.604Z,6.60
2018-09-03T03:16:42.018Z,6.93
2018-09-03T03:19:11.498Z,6.47
2018-09-03T03:21:42.558Z,8.00
2018-09-03T03:24:11.963Z,7.53
2018-09-03T03:26:42.680Z,6.67
2018-09-03T03:29:11.992Z,7.10
2018-09-03T03:31:41.074Z,6.73
2018-09-03T03:34:10.384Z,7.20
2018-09-03T03:36:39.471Z,6.90
2018-09-03T03:39:09.187Z,6.37
2018-09-03T03:41:38.317Z,7.17
2018-09-03T03:44:07.783Z,5.77
2018-09-03T03:46:36.883Z,6.80
2018-09-03T03:49:06.269Z,5.57
2018-09-03T03:51:35.477Z,6.10
2018-09-03T03:54:04.537Z,6.30
2018-09-03T03:56:33.871Z,5.97
2018-09-03T03:59:03.051Z,5.87
2018-09-03T04:01:32.168Z,5.70
2018-09-03T04:04:01.255Z,5.47
2018-09-03T04:06:30.387Z,5.23
2018-09-03T04:09:02.242Z,5.13
2018-09-03T04:11:32.373Z,5.13
2018-09-03T04:14:01.682Z,5.30
2018-09-03T04:16:31.347Z,5.13
2018-09-03T04:19:00.846Z,5.47
2018-09-03T04:21:30.229Z,5.60
2018-09-03T04:23:59.531Z,4.93
2018-09-03T04:26:28.867Z,4.87
2018-09-03T04:28:58.240Z,5.17
2018-09-03T04:31:27.523Z,4.80
2018-09-03T04:33:57.025Z,4.77
2018-09-03T04:36:26.545Z,5.03
2018-09-03T04:38:56.449Z,5.07
2018-09-03T04:41:25.575Z,5.87
2018-09-03T04:43:54.651Z,4.30
2018-09-03T04:46:23.779Z,4.67
2018-09-03T04:48:53.167Z,4.53
2018-09-03T04:51:22.280Z,5.23
2018-09-03T04:53:51.378Z,4.90
2018-09-03T04:56:20.491Z,4.97
2018-09-03T04:58:49.599Z,5.00
2018-09-03T05:01:18.963Z,5.10
2018-09-03T05:03:48.775Z,4.07
2018-09-03T05:06:17.831Z,4.63
2018-09-03T05:08:46.965Z,4.90
2018-09-03T05:11:16.052Z,5.47
2018-09-03T05:13:45.140Z,5.10
2018-09-03T05:16:14.456Z,4.97
2018-09-03T05:18:43.566Z,5.10
2018-09-03T05:21:12.676Z,4.93
2018-09-03T05:23:41.712Z,5.47
2018-09-03T05:26:10.820Z,5.47
2018-09-03T05:28:39.843Z,4.97
2018-09-03T05:31:08.982Z,4.83
2018-09-03T05:33:38.256Z,3.80
2018-09-03T05:36:07.544Z,4.50
2018-09-03T05:38:36.639Z,4.27
2018-09-03T05:41:05.855Z,4.03
2018-09-03T05:43:35.248Z,4.00
2018-09-03T05:46:04.412Z,4.30
2018-09-03T05:48:33.656Z,4.43
2018-09-03T05:51:02.724Z,4.13
2018-09-03T05:53:31.812Z,4.30
2018-09-03T05:56:00.912Z,4.53
2018-09-03T05:58:30.035Z,3.80
2018-09-03T06:00:59.127Z,4.03
2018-09-03T06:03:28.323Z,4.00
2018-09-03T06:05:57.444Z,4.40
2018-09-03T06:08:26.633Z,3.93
2018-09-03T06:10:55.736Z,3.83
2018-09-03T06:13:25.225Z,3.70
2018-09-03T06:15:54.293Z,4.07
2018-09-03T06:18:23.400Z,4.03
2018-09-03T06:20:52.467Z,4.07
2018-09-03T06:23:21.523Z,4.10
2018-09-03T06:25:50.695Z,4.27
2018-09-03T06:28:19.779Z,3.77
2018-09-03T06:30:48.897Z,4.17
2018-09-03T06:33:17.971Z,4.20
2018-09-03T06:35:47.211Z,4.00
2018-09-03T06:38:16.263Z,3.23
2018-09-03T06:40:45.363Z,4.13
2018-09-03T06:43:14.576Z,3.63
2018-09-03T06:45:43.663Z,3.80
2018-09-03T06:48:12.739Z,3.50
2018-09-03T06:50:41.863Z,3.43
2018-09-03T06:53:11.158Z,3.37
2018-09-03T06:55:40.228Z,3.90
2018-09-03T06:58:09.334Z,3.37
2018-09-03T07:00:38.557Z,3.50
2018-09-03T07:03:07.753Z,3.53
2018-09-03T07:05:36.783Z,3.93
2018-09-03T07:08:06.340Z,4.03
2018-09-03T07:10:35.535Z,3.10
2018-09-03T07:13:06.494Z,3.93
2018-09-03T07:15:36.359Z,3.33
2018-09-03T07:18:06.003Z,3.40
2018-09-03T07:20:35.643Z,3.37
2018-09-03T07:23:04.822Z,3.00
2018-09-03T07:25:33.919Z,4.17
2018-09-03T07:28:03.221Z,3.90
2018-09-03T07:30:32.295Z,3.70
2018-09-03T07:33:01.399Z,4.13
2018-09-03T07:35:30.530Z,3.57
2018-09-03T07:37:59.767Z,3.40
2018-09-03T07:40:28.911Z,4.23
2018-09-03T07:42:57.999Z,3.63
2018-09-03T07:45:27.076Z,3.60
2018-09-03T07:47:56.159Z,3.50
2018-09-03T07:50:25.271Z,2.97
2018-09-03T07:52:54.363Z,3.10
2018-09-03T07:55:23.447Z,3.60
2018-09-03T07:57:52.575Z,3.63
2018-09-03T08:00:21.611Z,4.37
2018-09-03T08:02:50.732Z,2.97
2018-09-03T08:05:19.868Z,3.33
2018-09-03T08:07:48.943Z,3.17
2018-09-03T08:10:18.019Z,3.70
2018-09-03T08:12:47.263Z,3.40
2018-09-03T08:15:16.544Z,3.43
2018-09-03T08:17:45.604Z,3.57
2018-09-03T08:20:14.751Z,3.90
2018-09-03T08:22:43.934Z,3.87
2018-09-03T08:25:13.016Z,3.53
2018-09-03T08:27:42.342Z,3.43
2018-09-03T08:30:11.564Z,3.33
2018-09-03T08:32:40.780Z,3.33
2018-09-03T08:35:09.892Z,3.50
2018-09-03T08:37:38.946Z,3.10
2018-09-03T08:40:08.144Z,3.67
2018-09-03T08:42:37.258Z,3.50
2018-09-03T08:45:06.592Z,3.60
2018-09-03T08:47:35.724Z,3.07
2018-09-03T08:50:08.720Z,3.50
2018-09-03T08:52:37.824Z,3.97
2018-09-03T08:55:07.005Z,4.20
2018-09-03T08:57:36.119Z,3.60
2018-09-03T09:00:05.404Z,3.97
2018-09-03T09:02:34.568Z,3.93
2018-09-03T09:05:03.912Z,3.80
2018-09-03T09:07:33.005Z,3.70
2018-09-03T09:10:02.202Z,4.03
2018-09-03T09:12:31.392Z,4.03
2018-09-03T09:15:00.567Z,3.50
2018-09-03T09:17:29.845Z,3.80
2018-09-03T09:19:59.256Z,3.83
2018-09-03T09:22:28.374Z,3.80
2018-09-03T09:24:57.586Z,3.60
2018-09-03T09:27:26.971Z,3.33
2018-09-03T09:29:56.049Z,3.00
2018-09-03T09:32:25.209Z,3.97
2018-09-03T09:34:54.320Z,3.73
2018-09-03T09:37:23.479Z,3.47
2018-09-03T09:39:52.836Z,3.30
2018-09-03T09:42:21.904Z,3.93
2018-09-03T09:44:51.069Z,3.50
2018-09-03T09:47:20.243Z,3.37
2018-09-03T09:49:49.390Z,4.00
2018-09-03T09:52:18.700Z,3.57
2018-09-03T09:54:47.912Z,3.73
2018-09-03T09:57:17.382Z,3.53
2018-09-03T09:59:46.560Z,3.60
2018-09-03T10:02:15.692Z,3.80
2018-09-03T10:04:44.877Z,3.50
2018-09-03T10:07:14.140Z,3.50
2018-09-03T10:09:43.378Z,3.67
2018-09-03T10:12:12.534Z,3.73
2018-09-03T10:14:41.733Z,3.60
2018-09-03T10:17:10.915Z,3.83
2018-09-03T10:19:40.144Z,3.93
2018-09-03T10:22:09.240Z,4.07
2018-09-03T10:24:38.439Z,3.67
2018-09-03T10:27:07.636Z,3.13
2018-09-03T10:29:36.832Z,3.20
2018-09-03T10:32:06.151Z,3.17
2018-09-03T10:34:35.451Z,3.77
2018-09-03T10:37:05.114Z,3.27
2018-09-03T10:39:34.251Z,3.83
2018-09-03T10:42:03.445Z,3.33
2018-09-03T10:44:32.795Z,3.40
2018-09-03T10:47:01.999Z,3.27
2018-09-03T10:49:31.267Z,3.10
2018-09-03T10:52:00.363Z,3.63
2018-09-03T10:54:29.548Z,3.70
2018-09-03T10:56:58.644Z,3.43
2018-09-03T10:59:27.782Z,3.33
2018-09-03T11:01:57.128Z,3.27
2018-09-03T11:04:26.342Z,3.80
2018-09-03T11:06:55.428Z,3.60
2018-09-03T11:09:24.622Z,3.27
2018-09-03T11:11:53.858Z,2.87
2018-09-03T11:14:23.212Z,3.10
2018-09-03T11:16:52.432Z,4.00
2018-09-03T11:19:24.060Z,3.43
2018-09-03T11:21:53.312Z,3.23
2018-09-03T11:24:22.590Z,3.53
2018-09-03T11:26:51.757Z,3.40
2018-09-03T11:29:21.680Z,3.07
2018-09-03T11:31:50.783Z,2.90
2018-09-03T11:34:19.963Z,3.07
2018-09-03T11:36:49.196Z,3.23
2018-09-03T11:39:18.401Z,3.23
2018-09-03T11:41:47.486Z,3.30
2018-09-03T11:44:16.634Z,2.83
2018-09-03T11:59:45.179Z,3.40
2018-09-03T12:02:14.341Z,3.37
2018-09-03T12:04:43.437Z,2.83
2018-09-03T12:07:12.503Z,3.20
2018-09-03T12:09:41.614Z,3.30
2018-09-03T12:12:10.844Z,3.37
2018-09-03T12:14:42.231Z,2.80
2018-09-03T12:17:11.421Z,3.10
2018-09-03T12:19:40.587Z,3.23
2018-09-03T12:22:09.680Z,2.83
2018-09-03T12:24:38.878Z,3.10
2018-09-03T12:27:08.063Z,3.40
2018-09-03T12:29:37.192Z,3.03
2018-09-03T12:32:06.455Z,3.23
2018-09-03T12:34:35.523Z,3.50
2018-09-03T12:37:04.829Z,3.20
2018-09-03T12:39:34.065Z,2.90
2018-09-03T12:42:03.153Z,3.00
2018-09-03T12:44:32.243Z,3.27
2018-09-03T12:47:01.414Z,3.07
2018-09-03T12:49:30.538Z,3.73
2018-09-03T12:51:59.637Z,3.17
2018-09-03T12:54:28.747Z,2.70
2018-09-03T12:56:57.807Z,2.80
2018-09-03T12:59:26.919Z,3.17
2018-09-03T13:01:56.091Z,3.20
2018-09-03T13:04:25.256Z,3.53
2018-09-03T13:06:54.537Z,3.60
2018-09-03T13:09:23.606Z,3.13
2018-09-03T13:11:52.677Z,3.10
2018-09-03T13:14:21.778Z,3.00
2018-09-03T13:16:50.915Z,3.33
2018-09-03T13:19:19.996Z,3.23
2018-09-03T13:21:48.995Z,3.20
2018-09-03T13:24:18.060Z,2.97
2018-09-03T13:26:47.299Z,2.70
2018-09-03T13:29:16.347Z,3.40
2018-09-03T13:31:45.490Z,3.30
2018-09-03T13:34:14.640Z,3.93
2018-09-03T13:36:43.784Z,2.97
2018-09-03T13:39:12.882Z,3.60
2018-09-03T13:41:41.993Z,3.77
2018-09-03T13:44:11.304Z,3.83
2018-09-03T13:46:41.500Z,3.73
2018-09-03T13:49:10.829Z,3.53
2018-09-03T13:51:40.022Z,3.30
2018-09-03T13:54:09.203Z,3.50
2018-09-03T13:56:38.436Z,3.20
2018-09-03T13:59:07.712Z,3.23
2018-09-03T14:01:36.886Z,3.20
2018-09-03T14:04:06.092Z,3.30
2018-09-03T14:06:35.216Z,3.73
2018-09-03T14:09:06.121Z,3.70
2018-09-03T14:11:35.364Z,3.30
2018-09-03T14:14:04.617Z,3.13
2018-09-03T14:16:34.052Z,4.03
2018-09-03T14:19:03.234Z,3.27
2018-09-03T14:21:32.350Z,3.17
2018-09-03T14:24:01.512Z,3.47
2018-09-03T14:26:30.657Z,3.57
2018-09-03T14:28:59.963Z,3.63
2018-09-03T14:31:29.113Z,3.03
2018-09-03T14:33:58.193Z,3.20
2018-09-03T14:36:27.278Z,3.17
2018-09-03T14:38:56.396Z,2.77
2018-09-03T14:41:25.500Z,3.30
2018-09-03T14:43:54.561Z,3.80
2018-09-03T14:46:23.786Z,5.13
2018-09-03T14:48:52.937Z,5.33
2018-09-03T14:51:22.081Z,4.30
2018-09-03T14:53:51.292Z,5.33
2018-09-03T14:56:20.434Z,5.00
2018-09-03T14:58:49.685Z,4.47
2018-09-03T15:01:18.810Z,4.37
2018-09-03T15:03:47.969Z,5.10
2018-09-03T15:06:17.284Z,5.17
2018-09-03T15:08:46.471Z,4.40
2018-09-03T15:11:15.571Z,5.47
2018-09-03T15:13:44.816Z,5.00
2018-09-03T15:16:13.956Z,3.90
2018-09-03T15:18:43.072Z,4.40
2018-09-03T15:21:12.276Z,4.47
2018-09-03T15:23:41.468Z,5.17
2018-09-03T15:26:10.734Z,4.93
2018-09-03T15:28:40.016Z,4.47
2018-09-03T15:31:09.867Z,4.40
2018-09-03T15:33:38.982Z,4.77
2018-09-03T15:36:08.232Z,4.47
2018-09-03T15:38:37.603Z,5.20
2018-09-03T15:41:06.930Z,4.47
2018-09-03T15:43:36.078Z,4.33
2018-09-03T15:46:06.456Z,4.30
2018-09-03T15:48:35.666Z,4.90
2018-09-03T15:51:05.265Z,4.63
2018-09-03T15:53:34.421Z,5.37
2018-09-03T15:56:03.985Z,4.97
2018-09-03T15:58:33.328Z,4.50
2018-09-03T16:01:02.495Z,4.57
2018-09-03T16:03:31.615Z,4.53
2018-09-03T16:06:00.793Z,4.83
2018-09-03T16:08:29.889Z,4.80
2018-09-03T16:10:58.997Z,5.37
2018-09-03T16:13:28.117Z,4.30
2018-09-03T16:15:57.269Z,4.97
2018-09-03T16:18:26.493Z,4.37
2018-09-03T16:20:55.630Z,5.17
2018-09-03T16:23:24.916Z,4.63
2018-09-03T16:25:54.084Z,5.40
2018-09-03T16:28:23.182Z,5.37
2018-09-03T16:30:52.424Z,4.57
2018-09-03T16:33:21.600Z,4.53
2018-09-03T16:35:50.763Z,4.97
2018-09-03T16:38:20.049Z,5.50
2018-09-03T16:40:49.179Z,5.93
2018-09-03T16:43:18.377Z,5.10
2018-09-03T16:45:47.497Z,5.17
2018-09-03T16:48:16.711Z,5.00
2018-09-03T16:50:46.026Z,5.37
2018-09-03T16:53:15.285Z,5.20
2018-09-03T16:55:44.496Z,5.80
2018-09-03T16:58:13.664Z,5.80
2018-09-03T17:00:42.861Z,5.27
2018-09-03T17:03:11.957Z,9.63
2018-09-03T17:05:41.419Z,39.77
2018-09-03T17:08:10.824Z,14.57
2018-09-03T17:10:40.100Z,20.63
2018-09-03T17:13:09.207Z,17.07
2018-09-03T17:15:38.376Z,10.90
2018-09-03T17:18:07.577Z,8.07
2018-09-03T17:20:36.749Z,8.80
2018-09-03T17:23:05.958Z,7.53
2018-09-03T17:25:35.189Z,7.53
2018-09-03T17:28:04.370Z,6.43
2018-09-03T17:30:33.481Z,6.20
2018-09-03T17:33:02.671Z,6.80
2018-09-03T17:35:31.829Z,7.03
2018-09-03T17:38:00.953Z,6.43
2018-09-03T17:40:30.145Z,5.90
2018-09-03T17:42:59.327Z,8.33
2018-09-03T17:45:28.557Z,6.83
2018-09-03T17:47:58.785Z,7.10
2018-09-03T17:50:27.917Z,8.40
2018-09-03T17:52:57.061Z,6.73
2018-09-03T17:55:26.237Z,12.13
2018-09-03T17:57:55.337Z,9.50
2018-09-03T18:00:24.539Z,7.97
2018-09-03T18:02:53.868Z,7.47
2018-09-03T18:05:23.037Z,7.60
2018-09-03T18:07:52.169Z,10.47
2018-09-03T18:10:21.269Z,8.37
2018-09-03T18:12:50.433Z,7.00
2018-09-03T18:15:19.693Z,7.50
2018-09-03T18:17:48.971Z,7.07
2018-09-03T18:20:18.089Z,7.10
2018-09-03T18:22:47.184Z,6.80
2018-09-03T18:25:16.301Z,7.60
2018-09-03T18:27:45.622Z,7.97
2018-09-03T18:30:14.880Z,8.20
2018-09-03T18:32:44.213Z,7.50
2018-09-03T18:35:13.338Z,7.63
2018-09-03T18:37:42.578Z,7.17
2018-09-03T18:40:11.802Z,7.27
2018-09-03T18:42:40.905Z,7.70
2018-09-03T18:45:10.313Z,8.00
2018-09-03T18:47:39.735Z,8.87
2018-09-03T18:50:10.614Z,8.87
2018-09-03T18:52:40.133Z,9.00
2018-09-03T18:55:09.716Z,7.90
2018-09-03T18:57:39.174Z,8.73
2018-09-03T19:00:08.831Z,8.80
2018-09-03T19:02:38.192Z,7.83
2018-09-03T19:05:07.379Z,8.80
2018-09-03T19:07:36.673Z,10.17
2018-09-03T19:10:06.391Z,8.60
2018-09-03T19:12:35.850Z,9.10
2018-09-03T19:15:05.213Z,10.13
2018-09-03T19:17:34.499Z,9.97
2018-09-03T19:20:03.557Z,9.30
2018-09-03T19:22:33.000Z,9.40
2018-09-03T19:25:02.179Z,9.43
2018-09-03T19:27:32.217Z,9.97
2018-09-03T19:30:01.444Z,11.97
2018-09-03T19:32:30.779Z,11.60
2018-09-03T19:34:59.889Z,10.40
2018-09-03T19:37:29.110Z,9.53
2018-09-03T19:39:58.209Z,10.90
2018-09-03T19:42:27.427Z,10.17
2018-09-03T19:44:56.544Z,9.97
2018-09-03T19:47:25.902Z,9.80
2018-09-03T19:49:55.114Z,10.30
2018-09-03T19:52:24.244Z,10.07
2018-09-03T19:54:53.332Z,11.20
2018-09-03T19:57:22.611Z,11.17
2018-09-03T19:59:51.804Z,11.03
2018-09-03T20:02:20.992Z,11.30
2018-09-03T20:04:50.784Z,12.13
2018-09-03T20:07:19.987Z,11.63
2018-09-03T20:09:50.769Z,12.00
2018-09-03T20:12:20.048Z,9.93
2018-09-03T20:14:49.252Z,11.20
2018-09-03T20:17:18.423Z,10.17
2018-09-03T20:19:47.834Z,10.03
2018-09-03T20:22:18.262Z,10.83
2018-09-03T20:24:47.365Z,11.23
2018-09-03T20:27:16.483Z,9.63
2018-09-03T20:29:45.736Z,10.00
2018-09-03T20:32:14.852Z,10.50
2018-09-03T20:34:43.946Z,10.47
2018-09-03T20:37:13.035Z,11.40
2018-09-03T20:39:42.112Z,10.40
2018-09-03T20:42:11.192Z,10.57
2018-09-03T20:44:40.343Z,10.27
2018-09-03T20:47:09.722Z,10.07
2018-09-03T20:49:38.828Z,10.53
2018-09-03T20:52:30.303Z,10.27
2018-09-03T20:55:00.421Z,9.40
2018-09-03T20:57:31.945Z,9.00
2018-09-03T21:00:01.048Z,9.03
2018-09-03T21:02:30.881Z,9.17
2018-09-03T21:05:01.567Z,8.53
2018-09-03T21:07:36.243Z,7.97
2018-09-03T21:10:11.375Z,9.13
2018-09-03T21:12:40.627Z,9.47
2018-09-03T21:15:09.979Z,8.27
2018-09-03T21:17:39.689Z,7.60
2018-09-03T21:20:10.425Z,9.03
2018-09-03T21:22:40.549Z,8.90
2018-09-03T21:25:09.756Z,9.40
2018-09-03T21:27:39.049Z,9.53
2018-09-03T21:30:09.546Z,9.43
2018-09-03T21:32:40.602Z,9.03
2018-09-03T21:35:10.553Z,9.13
2018-09-03T21:37:39.683Z,10.73
2018-09-03T21:40:08.912Z,9.70
2018-09-03T21:42:38.632Z,10.17
2018-09-03T21:45:10.073Z,9.20
2018-09-03T21:47:40.150Z,9.50
2018-09-03T21:50:09.236Z,9.83
2018-09-03T21:52:38.410Z,9.67
2018-09-03T21:55:08.414Z,9.90
2018-09-03T21:57:39.729Z,10.10
2018-09-03T22:00:10.992Z,9.23
2018-09-03T22:02:40.446Z,9.83
2018-09-03T22:06:39.786Z,9.37
2018-09-03T22:09:09.182Z,10.50
2018-09-03T22:11:43.569Z,9.43
2018-09-03T22:14:17.721Z,9.50
2018-09-03T22:16:46.890Z,9.20
2018-09-03T22:19:17.851Z,9.33
2018-09-03T22:21:47.118Z,9.47
2018-09-03T22:24:16.330Z,8.63
2018-09-03T22:26:45.426Z,9.83
2018-09-03T22:29:15.873Z,9.43
2018-09-03T22:31:47.055Z,8.70
2018-09-03T22:34:16.704Z,9.23
2018-09-03T22:36:45.836Z,9.17
2018-09-03T22:39:21.463Z,8.97
2018-09-03T22:41:57.776Z,8.07
2018-09-03T22:44:28.146Z,8.20
2018-09-03T22:46:57.684Z,8.23
2018-09-03T22:49:27.053Z,8.10
2018-09-03T22:51:57.381Z,8.53
2018-09-03T22:54:27.758Z,8.87
2018-09-03T22:56:57.598Z,9.00
2018-09-03T22:59:26.728Z,9.37
2018-09-03T23:01:55.779Z,8.83
2018-09-03T23:04:25.482Z,9.00
2018-09-03T23:06:56.513Z,9.90
2018-09-03T23:09:26.639Z,8.57
2018-09-03T23:11:55.761Z,8.60
2018-09-03T23:14:25.028Z,8.37
2018-09-03T23:16:54.324Z,8.30
2018-09-03T23:19:24.916Z,8.37
2018-09-03T23:21:55.976Z,7.90
2018-09-03T23:24:25.375Z,8.10
2018-09-03T23:26:54.750Z,8.17
2018-09-03T23:29:24.209Z,8.60
2018-09-03T23:31:55.761Z,8.90
2018-09-03T23:34:25.952Z,8.93
2018-09-03T23:36:55.259Z,8.80
2018-09-03T23:39:24.347Z,8.47
2018-09-03T23:41:53.496Z,9.03
2018-09-03T23:44:23.079Z,8.43
2018-09-03T23:46:53.898Z,9.10
2018-09-03T23:53:39.507Z,8.40
2018-09-03T23:56:10.604Z,8.90
2018-09-03T23:58:42.684Z,9.27
